sensor_id;sensor_type;location;lat;lon;timestamp;P1;durP1;ratioP1;P2;durP2;ratioP2
80201;SDS011;69521;54.454;9.928;2024-02-21T00:01:49;29.05;;;8.20;;
80201;SDS011;69521;54.454;9.928;2024-02-21T00:04:14;23.67;;;8.70;;
80201;SDS011;69521;54.454;9.928;2024-02-21T00:06:41;32.95;;;8.73;;
80201;SDS011;69521;54.454;9.928;2024-02-21T00:09:06;27.13;;;8.55;;
80201;SDS011;69521;54.454;9.928;2024-02-21T00:11:31;31.40;;;8.47;;
80201;SDS011;69521;54.454;9.928;2024-02-21T00:13:57;21.15;;;8.50;;
80201;SDS011;69521;54.454;9.928;2024-02-21T00:16:22;41.80;;;9.20;;
80201;SDS011;69521;54.454;9.928;2024-02-21T00:18:47;33.20;;;9.00;;
80201;SDS011;69521;54.454;9.928;2024-02-21T00:21:13;34.00;;;8.80;;
80201;SDS011;69521;54.454;9.928;2024-02-21T00:23:43;23.35;;;8.65;;
80201;SDS011;69521;54.454;9.928;2024-02-21T00:26:10;22.30;;;9.82;;
80201;SDS011;69521;54.454;9.928;2024-02-21T00:28:36;26.60;;;8.68;;
80201;SDS011;69521;54.454;9.928;2024-02-21T00:31:01;27.83;;;8.33;;
80201;SDS011;69521;54.454;9.928;2024-02-21T00:33:27;26.77;;;7.88;;
80201;SDS011;69521;54.454;9.928;2024-02-21T00:35:52;27.73;;;9.70;;
80201;SDS011;69521;54.454;9.928;2024-02-21T00:38:17;19.60;;;7.63;;
80201;SDS011;69521;54.454;9.928;2024-02-21T00:40:42;23.53;;;8.33;;
80201;SDS011;69521;54.454;9.928;2024-02-21T00:43:08;24.38;;;7.50;;
80201;SDS011;69521;54.454;9.928;2024-02-21T00:45:33;27.73;;;8.18;;
80201;SDS011;69521;54.454;9.928;2024-02-21T00:47:58;20.50;;;8.55;;
80201;SDS011;69521;54.454;9.928;2024-02-21T00:50:24;23.13;;;8.50;;
80201;SDS011;69521;54.454;9.928;2024-02-21T00:52:49;20.00;;;7.83;;
80201;SDS011;69521;54.454;9.928;2024-02-21T00:55:14;20.90;;;7.90;;
80201;SDS011;69521;54.454;9.928;2024-02-21T00:57:40;21.98;;;8.23;;
80201;SDS011;69521;54.454;9.928;2024-02-21T01:00:05;23.60;;;8.30;;
80201;SDS011;69521;54.454;9.928;2024-02-21T01:02:31;21.42;;;7.75;;
80201;SDS011;69521;54.454;9.928;2024-02-21T01:04:57;26.33;;;8.25;;
80201;SDS011;69521;54.454;9.928;2024-02-21T01:07:23;26.10;;;8.38;;
80201;SDS011;69521;54.454;9.928;2024-02-21T01:09:48;22.30;;;8.25;;
80201;SDS011;69521;54.454;9.928;2024-02-21T01:12:13;27.52;;;8.48;;
80201;SDS011;69521;54.454;9.928;2024-02-21T01:14:39;28.30;;;8.23;;
80201;SDS011;69521;54.454;9.928;2024-02-21T01:17:04;17.30;;;7.68;;
80201;SDS011;69521;54.454;9.928;2024-02-21T01:19:31;19.15;;;7.50;;
80201;SDS011;69521;54.454;9.928;2024-02-21T01:21:56;19.25;;;7.07;;
80201;SDS011;69521;54.454;9.928;2024-02-21T01:24:22;17.93;;;7.63;;
80201;SDS011;69521;54.454;9.928;2024-02-21T01:26:47;15.73;;;6.03;;
80201;SDS011;69521;54.454;9.928;2024-02-21T01:29:12;17.07;;;6.03;;
80201;SDS011;69521;54.454;9.928;2024-02-21T01:31:37;21.55;;;6.95;;
80201;SDS011;69521;54.454;9.928;2024-02-21T01:34:03;14.45;;;5.38;;
80201;SDS011;69521;54.454;9.928;2024-02-21T01:36:28;18.02;;;5.95;;
80201;SDS011;69521;54.454;9.928;2024-02-21T01:38:53;15.27;;;5.95;;
80201;SDS011;69521;54.454;9.928;2024-02-21T01:41:19;10.30;;;3.80;;
80201;SDS011;69521;54.454;9.928;2024-02-21T01:43:44;12.77;;;4.97;;
80201;SDS011;69521;54.454;9.928;2024-02-21T01:46:10;9.15;;;4.22;;
80201;SDS011;69521;54.454;9.928;2024-02-21T01:48:35;11.40;;;5.15;;
80201;SDS011;69521;54.454;9.928;2024-02-21T01:51:00;12.32;;;3.85;;
80201;SDS011;69521;54.454;9.928;2024-02-21T01:53:36;13.88;;;5.05;;
80201;SDS011;69521;54.454;9.928;2024-02-21T01:56:04;11.45;;;5.78;;
80201;SDS011;69521;54.454;9.928;2024-02-21T01:58:31;10.93;;;5.00;;
80201;SDS011;69521;54.454;9.928;2024-02-21T02:00:58;6.82;;;3.70;;
80201;SDS011;69521;54.454;9.928;2024-02-21T02:03:24;8.30;;;4.78;;
80201;SDS011;69521;54.454;9.928;2024-02-21T02:05:50;12.35;;;5.03;;
80201;SDS011;69521;54.454;9.928;2024-02-21T02:08:16;10.18;;;5.05;;
80201;SDS011;69521;54.454;9.928;2024-02-21T02:10:43;14.70;;;5.65;;
80201;SDS011;69521;54.454;9.928;2024-02-21T02:13:09;10.68;;;5.75;;
80201;SDS011;69521;54.454;9.928;2024-02-21T02:15:41;13.02;;;6.35;;
80201;SDS011;69521;54.454;9.928;2024-02-21T02:20:35;8.63;;;5.32;;
80201;SDS011;69521;54.454;9.928;2024-02-21T02:23:06;13.55;;;6.53;;
80201;SDS011;69521;54.454;9.928;2024-02-21T02:25:35;16.80;;;6.88;;
80201;SDS011;69521;54.454;9.928;2024-02-21T02:28:02;17.13;;;6.28;;
80201;SDS011;69521;54.454;9.928;2024-02-21T02:30:28;9.82;;;5.28;;
80201;SDS011;69521;54.454;9.928;2024-02-21T02:32:56;13.45;;;5.57;;
80201;SDS011;69521;54.454;9.928;2024-02-21T02:35:22;11.90;;;5.50;;
80201;SDS011;69521;54.454;9.928;2024-02-21T02:37:47;11.43;;;4.90;;
80201;SDS011;69521;54.454;9.928;2024-02-21T02:40:14;12.73;;;4.60;;
80201;SDS011;69521;54.454;9.928;2024-02-21T02:42:39;11.25;;;4.45;;
80201;SDS011;69521;54.454;9.928;2024-02-21T02:45:05;8.83;;;4.93;;
80201;SDS011;69521;54.454;9.928;2024-02-21T02:47:31;6.60;;;4.45;;
80201;SDS011;69521;54.454;9.928;2024-02-21T02:49:56;7.38;;;3.95;;
80201;SDS011;69521;54.454;9.928;2024-02-21T02:52:21;8.27;;;3.07;;
80201;SDS011;69521;54.454;9.928;2024-02-21T02:54:46;7.43;;;3.63;;
80201;SDS011;69521;54.454;9.928;2024-02-21T02:57:16;12.55;;;4.00;;
80201;SDS011;69521;54.454;9.928;2024-02-21T02:59:42;6.20;;;3.22;;
80201;SDS011;69521;54.454;9.928;2024-02-21T03:02:07;9.25;;;2.88;;
80201;SDS011;69521;54.454;9.928;2024-02-21T03:04:32;8.87;;;3.40;;
80201;SDS011;69521;54.454;9.928;2024-02-21T03:06:58;5.60;;;2.33;;
80201;SDS011;69521;54.454;9.928;2024-02-21T03:09:23;4.90;;;2.03;;
80201;SDS011;69521;54.454;9.928;2024-02-21T03:11:48;4.33;;;1.93;;
80201;SDS011;69521;54.454;9.928;2024-02-21T03:14:14;3.57;;;1.90;;
80201;SDS011;69521;54.454;9.928;2024-02-21T03:16:39;5.00;;;1.87;;
80201;SDS011;69521;54.454;9.928;2024-02-21T03:19:04;6.77;;;1.83;;
80201;SDS011;69521;54.454;9.928;2024-02-21T03:21:29;6.00;;;1.63;;
80201;SDS011;69521;54.454;9.928;2024-02-21T03:23:55;5.23;;;1.43;;
80201;SDS011;69521;54.454;9.928;2024-02-21T03:26:20;5.25;;;1.20;;
80201;SDS011;69521;54.454;9.928;2024-02-21T03:28:46;2.00;;;1.33;;
80201;SDS011;69521;54.454;9.928;2024-02-21T03:31:11;1.60;;;0.70;;
80201;SDS011;69521;54.454;9.928;2024-02-21T03:33:38;2.13;;;0.70;;
80201;SDS011;69521;54.454;9.928;2024-02-21T03:36:04;6.95;;;1.10;;
80201;SDS011;69521;54.454;9.928;2024-02-21T03:38:29;6.40;;;1.02;;
80201;SDS011;69521;54.454;9.928;2024-02-21T03:40:55;6.47;;;1.17;;
80201;SDS011;69521;54.454;9.928;2024-02-21T03:43:20;6.03;;;1.33;;
80201;SDS011;69521;54.454;9.928;2024-02-21T03:45:45;8.30;;;1.77;;
80201;SDS011;69521;54.454;9.928;2024-02-21T03:48:11;7.90;;;1.30;;
80201;SDS011;69521;54.454;9.928;2024-02-21T03:50:36;4.83;;;1.60;;
80201;SDS011;69521;54.454;9.928;2024-02-21T03:53:01;9.03;;;2.83;;
80201;SDS011;69521;54.454;9.928;2024-02-21T03:55:26;7.60;;;1.73;;
80201;SDS011;69521;54.454;9.928;2024-02-21T03:57:52;12.27;;;2.22;;
80201;SDS011;69521;54.454;9.928;2024-02-21T04:00:18;12.75;;;2.47;;
80201;SDS011;69521;54.454;9.928;2024-02-21T04:02:43;13.43;;;2.42;;
80201;SDS011;69521;54.454;9.928;2024-02-21T04:05:08;9.17;;;2.80;;
80201;SDS011;69521;54.454;9.928;2024-02-21T04:07:36;8.68;;;3.20;;
80201;SDS011;69521;54.454;9.928;2024-02-21T04:10:02;15.70;;;2.70;;
80201;SDS011;69521;54.454;9.928;2024-02-21T04:12:28;13.23;;;2.70;;
80201;SDS011;69521;54.454;9.928;2024-02-21T04:14:53;21.20;;;3.78;;
80201;SDS011;69521;54.454;9.928;2024-02-21T04:17:18;19.10;;;3.77;;
80201;SDS011;69521;54.454;9.928;2024-02-21T04:19:44;14.73;;;2.50;;
80201;SDS011;69521;54.454;9.928;2024-02-21T04:22:09;15.37;;;3.53;;
80201;SDS011;69521;54.454;9.928;2024-02-21T04:24:34;17.43;;;2.47;;
80201;SDS011;69521;54.454;9.928;2024-02-21T04:26:59;13.37;;;2.93;;
80201;SDS011;69521;54.454;9.928;2024-02-21T04:29:25;25.05;;;2.88;;
80201;SDS011;69521;54.454;9.928;2024-02-21T04:31:50;16.67;;;2.60;;
80201;SDS011;69521;54.454;9.928;2024-02-21T04:34:15;18.33;;;2.90;;
80201;SDS011;69521;54.454;9.928;2024-02-21T04:36:41;20.70;;;3.08;;
80201;SDS011;69521;54.454;9.928;2024-02-21T04:39:06;17.20;;;2.72;;
80201;SDS011;69521;54.454;9.928;2024-02-21T04:41:31;21.65;;;3.60;;
80201;SDS011;69521;54.454;9.928;2024-02-21T04:43:57;15.80;;;2.73;;
80201;SDS011;69521;54.454;9.928;2024-02-21T04:46:22;21.33;;;4.60;;
80201;SDS011;69521;54.454;9.928;2024-02-21T04:48:47;16.73;;;2.67;;
80201;SDS011;69521;54.454;9.928;2024-02-21T04:51:12;14.83;;;2.80;;
80201;SDS011;69521;54.454;9.928;2024-02-21T04:53:38;15.95;;;2.58;;
80201;SDS011;69521;54.454;9.928;2024-02-21T04:56:04;14.48;;;2.20;;
80201;SDS011;69521;54.454;9.928;2024-02-21T04:58:29;20.33;;;2.70;;
80201;SDS011;69521;54.454;9.928;2024-02-21T05:00:55;11.77;;;2.03;;
80201;SDS011;69521;54.454;9.928;2024-02-21T05:03:20;16.17;;;2.97;;
80201;SDS011;69521;54.454;9.928;2024-02-21T05:05:46;18.38;;;2.60;;
80201;SDS011;69521;54.454;9.928;2024-02-21T05:08:12;14.40;;;3.07;;
80201;SDS011;69521;54.454;9.928;2024-02-21T05:10:37;19.48;;;3.20;;
80201;SDS011;69521;54.454;9.928;2024-02-21T05:13:03;12.68;;;2.55;;
80201;SDS011;69521;54.454;9.928;2024-02-21T05:15:28;20.17;;;2.75;;
80201;SDS011;69521;54.454;9.928;2024-02-21T05:17:53;16.63;;;2.73;;
80201;SDS011;69521;54.454;9.928;2024-02-21T05:20:19;18.23;;;2.72;;
80201;SDS011;69521;54.454;9.928;2024-02-21T05:22:44;18.83;;;2.50;;
80201;SDS011;69521;54.454;9.928;2024-02-21T05:25:09;20.80;;;3.03;;
80201;SDS011;69521;54.454;9.928;2024-02-21T05:27:35;18.52;;;3.55;;
80201;SDS011;69521;54.454;9.928;2024-02-21T05:30:01;22.30;;;2.38;;
80201;SDS011;69521;54.454;9.928;2024-02-21T05:32:27;22.15;;;3.47;;
80201;SDS011;69521;54.454;9.928;2024-02-21T05:34:53;18.30;;;2.60;;
80201;SDS011;69521;54.454;9.928;2024-02-21T05:37:18;10.35;;;2.10;;
80201;SDS011;69521;54.454;9.928;2024-02-21T05:39:43;13.07;;;1.85;;
80201;SDS011;69521;54.454;9.928;2024-02-21T05:42:09;17.95;;;3.03;;
80201;SDS011;69521;54.454;9.928;2024-02-21T05:44:34;18.48;;;3.20;;
80201;SDS011;69521;54.454;9.928;2024-02-21T05:46:59;11.23;;;3.25;;
80201;SDS011;69521;54.454;9.928;2024-02-21T05:49:24;24.37;;;3.23;;
80201;SDS011;69521;54.454;9.928;2024-02-21T05:51:50;12.65;;;2.30;;
80201;SDS011;69521;54.454;9.928;2024-02-21T05:54:15;14.43;;;2.63;;
80201;SDS011;69521;54.454;9.928;2024-02-21T05:56:43;11.30;;;2.47;;
80201;SDS011;69521;54.454;9.928;2024-02-21T05:59:10;19.95;;;2.92;;
80201;SDS011;69521;54.454;9.928;2024-02-21T06:01:35;24.07;;;3.07;;
80201;SDS011;69521;54.454;9.928;2024-02-21T06:04:00;21.10;;;2.85;;
80201;SDS011;69521;54.454;9.928;2024-02-21T06:06:25;22.42;;;3.10;;
80201;SDS011;69521;54.454;9.928;2024-02-21T06:08:51;16.83;;;3.10;;
80201;SDS011;69521;54.454;9.928;2024-02-21T06:11:16;16.83;;;2.72;;
80201;SDS011;69521;54.454;9.928;2024-02-21T06:13:42;23.20;;;3.13;;
80201;SDS011;69521;54.454;9.928;2024-02-21T06:16:07;16.30;;;2.58;;
80201;SDS011;69521;54.454;9.928;2024-02-21T06:18:34;24.23;;;3.65;;
80201;SDS011;69521;54.454;9.928;2024-02-21T06:21:00;16.80;;;2.85;;
80201;SDS011;69521;54.454;9.928;2024-02-21T06:23:26;15.98;;;2.50;;
80201;SDS011;69521;54.454;9.928;2024-02-21T06:25:51;15.03;;;3.20;;
80201;SDS011;69521;54.454;9.928;2024-02-21T06:28:17;14.30;;;2.53;;
80201;SDS011;69521;54.454;9.928;2024-02-21T06:30:42;20.13;;;2.92;;
80201;SDS011;69521;54.454;9.928;2024-02-21T06:33:07;18.63;;;2.87;;
80201;SDS011;69521;54.454;9.928;2024-02-21T06:35:33;19.52;;;2.60;;
80201;SDS011;69521;54.454;9.928;2024-02-21T06:37:59;34.25;;;3.25;;
80201;SDS011;69521;54.454;9.928;2024-02-21T06:40:24;11.30;;;2.27;;
80201;SDS011;69521;54.454;9.928;2024-02-21T06:42:50;13.90;;;2.92;;
80201;SDS011;69521;54.454;9.928;2024-02-21T06:45:15;26.83;;;3.25;;
80201;SDS011;69521;54.454;9.928;2024-02-21T06:47:41;19.17;;;2.75;;
80201;SDS011;69521;54.454;9.928;2024-02-21T06:50:06;16.70;;;2.80;;
80201;SDS011;69521;54.454;9.928;2024-02-21T06:52:32;9.93;;;2.17;;
80201;SDS011;69521;54.454;9.928;2024-02-21T06:54:57;22.92;;;3.17;;
80201;SDS011;69521;54.454;9.928;2024-02-21T06:57:22;21.30;;;2.87;;
80201;SDS011;69521;54.454;9.928;2024-02-21T06:59:48;17.48;;;3.30;;
80201;SDS011;69521;54.454;9.928;2024-02-21T07:02:13;20.80;;;2.92;;
80201;SDS011;69521;54.454;9.928;2024-02-21T07:04:39;21.02;;;3.10;;
80201;SDS011;69521;54.454;9.928;2024-02-21T07:07:04;17.98;;;2.35;;
80201;SDS011;69521;54.454;9.928;2024-02-21T07:09:29;17.40;;;2.90;;
80201;SDS011;69521;54.454;9.928;2024-02-21T07:11:57;17.98;;;2.72;;
80201;SDS011;69521;54.454;9.928;2024-02-21T07:14:25;16.25;;;3.35;;
80201;SDS011;69521;54.454;9.928;2024-02-21T07:16:50;12.70;;;2.53;;
80201;SDS011;69521;54.454;9.928;2024-02-21T07:19:16;17.30;;;2.42;;
80201;SDS011;69521;54.454;9.928;2024-02-21T07:21:41;19.85;;;2.92;;
80201;SDS011;69521;54.454;9.928;2024-02-21T07:24:07;11.48;;;2.47;;
80201;SDS011;69521;54.454;9.928;2024-02-21T07:26:33;20.38;;;2.95;;
80201;SDS011;69521;54.454;9.928;2024-02-21T07:28:58;21.98;;;2.70;;
80201;SDS011;69521;54.454;9.928;2024-02-21T07:31:24;26.20;;;2.90;;
80201;SDS011;69521;54.454;9.928;2024-02-21T07:33:49;14.03;;;2.07;;
80201;SDS011;69521;54.454;9.928;2024-02-21T07:36:14;18.67;;;2.30;;
80201;SDS011;69521;54.454;9.928;2024-02-21T07:38:40;24.48;;;3.00;;
80201;SDS011;69521;54.454;9.928;2024-02-21T07:41:06;13.38;;;2.65;;
80201;SDS011;69521;54.454;9.928;2024-02-21T07:43:31;11.75;;;2.30;;
80201;SDS011;69521;54.454;9.928;2024-02-21T07:45:57;16.80;;;4.00;;
80201;SDS011;69521;54.454;9.928;2024-02-21T07:48:22;20.48;;;2.30;;
80201;SDS011;69521;54.454;9.928;2024-02-21T07:50:51;22.17;;;2.53;;
80201;SDS011;69521;54.454;9.928;2024-02-21T07:53:17;17.05;;;2.05;;
80201;SDS011;69521;54.454;9.928;2024-02-21T07:55:42;19.67;;;3.00;;
80201;SDS011;69521;54.454;9.928;2024-02-21T07:58:07;25.07;;;2.87;;
80201;SDS011;69521;54.454;9.928;2024-02-21T08:00:33;14.48;;;2.85;;
80201;SDS011;69521;54.454;9.928;2024-02-21T08:02:58;24.85;;;3.20;;
80201;SDS011;69521;54.454;9.928;2024-02-21T08:05:24;10.83;;;1.90;;
80201;SDS011;69521;54.454;9.928;2024-02-21T08:07:49;22.38;;;3.00;;
80201;SDS011;69521;54.454;9.928;2024-02-21T08:10:14;32.47;;;2.53;;
80201;SDS011;69521;54.454;9.928;2024-02-21T08:12:40;21.10;;;2.30;;
80201;SDS011;69521;54.454;9.928;2024-02-21T08:15:05;10.93;;;1.70;;
80201;SDS011;69521;54.454;9.928;2024-02-21T08:17:33;16.60;;;1.80;;
80201;SDS011;69521;54.454;9.928;2024-02-21T08:19:59;21.40;;;2.85;;
80201;SDS011;69521;54.454;9.928;2024-02-21T08:22:24;16.13;;;2.28;;
80201;SDS011;69521;54.454;9.928;2024-02-21T08:24:50;19.25;;;2.65;;
80201;SDS011;69521;54.454;9.928;2024-02-21T08:27:15;21.15;;;2.50;;
80201;SDS011;69521;54.454;9.928;2024-02-21T08:29:40;15.02;;;2.95;;
80201;SDS011;69521;54.454;9.928;2024-02-21T08:32:05;18.90;;;3.33;;
80201;SDS011;69521;54.454;9.928;2024-02-21T08:34:31;20.33;;;2.05;;
80201;SDS011;69521;54.454;9.928;2024-02-21T08:36:59;15.30;;;2.58;;
80201;SDS011;69521;54.454;9.928;2024-02-21T08:39:24;15.90;;;2.42;;
80201;SDS011;69521;54.454;9.928;2024-02-21T08:41:49;19.02;;;2.10;;
80201;SDS011;69521;54.454;9.928;2024-02-21T08:44:16;17.30;;;2.50;;
80201;SDS011;69521;54.454;9.928;2024-02-21T08:46:41;22.40;;;2.37;;
80201;SDS011;69521;54.454;9.928;2024-02-21T08:49:06;17.02;;;1.80;;
80201;SDS011;69521;54.454;9.928;2024-02-21T08:51:32;18.80;;;2.15;;
80201;SDS011;69521;54.454;9.928;2024-02-21T08:53:57;13.60;;;2.07;;
80201;SDS011;69521;54.454;9.928;2024-02-21T08:56:23;16.08;;;2.13;;
80201;SDS011;69521;54.454;9.928;2024-02-21T08:58:49;21.08;;;2.50;;
80201;SDS011;69521;54.454;9.928;2024-02-21T09:01:15;20.70;;;2.15;;
80201;SDS011;69521;54.454;9.928;2024-02-21T09:03:40;21.67;;;3.20;;
80201;SDS011;69521;54.454;9.928;2024-02-21T09:06:05;15.38;;;2.20;;
80201;SDS011;69521;54.454;9.928;2024-02-21T09:08:32;25.88;;;3.13;;
80201;SDS011;69521;54.454;9.928;2024-02-21T09:10:58;15.43;;;2.63;;
80201;SDS011;69521;54.454;9.928;2024-02-21T09:13:25;24.00;;;2.97;;
80201;SDS011;69521;54.454;9.928;2024-02-21T09:15:50;15.25;;;2.28;;
80201;SDS011;69521;54.454;9.928;2024-02-21T09:18:15;20.38;;;2.80;;
80201;SDS011;69521;54.454;9.928;2024-02-21T09:20:41;15.57;;;2.10;;
80201;SDS011;69521;54.454;9.928;2024-02-21T09:23:07;13.05;;;2.17;;
80201;SDS011;69521;54.454;9.928;2024-02-21T09:25:32;19.05;;;3.03;;
80201;SDS011;69521;54.454;9.928;2024-02-21T09:27:58;14.77;;;2.10;;
80201;SDS011;69521;54.454;9.928;2024-02-21T09:30:23;15.40;;;1.90;;
80201;SDS011;69521;54.454;9.928;2024-02-21T09:32:49;14.90;;;2.08;;
80201;SDS011;69521;54.454;9.928;2024-02-21T09:35:14;14.18;;;2.58;;
80201;SDS011;69521;54.454;9.928;2024-02-21T09:37:40;11.23;;;2.60;;
80201;SDS011;69521;54.454;9.928;2024-02-21T09:40:05;17.55;;;2.10;;
80201;SDS011;69521;54.454;9.928;2024-02-21T09:42:38;11.38;;;2.00;;
80201;SDS011;69521;54.454;9.928;2024-02-21T09:45:07;12.50;;;2.42;;
80201;SDS011;69521;54.454;9.928;2024-02-21T09:48:04;13.15;;;1.90;;
80201;SDS011;69521;54.454;9.928;2024-02-21T09:50:44;10.60;;;1.65;;
80201;SDS011;69521;54.454;9.928;2024-02-21T09:53:12;11.90;;;2.55;;
80201;SDS011;69521;54.454;9.928;2024-02-21T09:55:38;12.05;;;1.83;;
80201;SDS011;69521;54.454;9.928;2024-02-21T09:58:06;12.35;;;1.83;;
80201;SDS011;69521;54.454;9.928;2024-02-21T10:00:32;12.75;;;2.13;;
80201;SDS011;69521;54.454;9.928;2024-02-21T10:02:58;11.70;;;1.90;;
80201;SDS011;69521;54.454;9.928;2024-02-21T10:05:24;18.80;;;3.35;;
80201;SDS011;69521;54.454;9.928;2024-02-21T10:07:50;17.75;;;2.10;;
80201;SDS011;69521;54.454;9.928;2024-02-21T10:10:16;18.83;;;3.05;;
80201;SDS011;69521;54.454;9.928;2024-02-21T10:12:52;14.77;;;2.25;;
80201;SDS011;69521;54.454;9.928;2024-02-21T10:15:22;15.82;;;2.58;;
80201;SDS011;69521;54.454;9.928;2024-02-21T10:17:49;10.32;;;1.73;;
80201;SDS011;69521;54.454;9.928;2024-02-21T10:20:25;12.73;;;2.25;;
80201;SDS011;69521;54.454;9.928;2024-02-21T10:22:59;14.75;;;1.67;;
80201;SDS011;69521;54.454;9.928;2024-02-21T10:25:26;10.70;;;1.65;;
80201;SDS011;69521;54.454;9.928;2024-02-21T10:27:52;9.05;;;1.58;;
80201;SDS011;69521;54.454;9.928;2024-02-21T10:30:17;8.60;;;1.70;;
80201;SDS011;69521;54.454;9.928;2024-02-21T10:32:53;11.13;;;1.85;;
80201;SDS011;69521;54.454;9.928;2024-02-21T10:35:28;9.27;;;1.50;;
80201;SDS011;69521;54.454;9.928;2024-02-21T10:37:57;12.63;;;1.80;;
80201;SDS011;69521;54.454;9.928;2024-02-21T10:40:27;9.23;;;1.48;;
80201;SDS011;69521;54.454;9.928;2024-02-21T10:43:02;10.20;;;1.95;;
80201;SDS011;69521;54.454;9.928;2024-02-21T10:48:13;11.07;;;1.42;;
80201;SDS011;69521;54.454;9.928;2024-02-21T10:53:41;9.60;;;1.20;;
80201;SDS011;69521;54.454;9.928;2024-02-21T10:56:22;7.75;;;1.13;;
80201;SDS011;69521;54.454;9.928;2024-02-21T10:58:49;12.65;;;1.65;;
80201;SDS011;69521;54.454;9.928;2024-02-21T11:01:14;10.35;;;1.70;;
80201;SDS011;69521;54.454;9.928;2024-02-21T11:03:41;7.40;;;1.30;;
80201;SDS011;69521;54.454;9.928;2024-02-21T11:06:09;16.83;;;1.85;;
80201;SDS011;69521;54.454;9.928;2024-02-21T11:08:36;13.02;;;2.85;;
80201;SDS011;69521;54.454;9.928;2024-02-21T11:11:01;10.88;;;1.60;;
80201;SDS011;69521;54.454;9.928;2024-02-21T11:13:30;6.50;;;1.52;;
80201;SDS011;69521;54.454;9.928;2024-02-21T11:16:06;10.95;;;2.40;;
80201;SDS011;69521;54.454;9.928;2024-02-21T11:18:34;6.75;;;1.30;;
80201;SDS011;69521;54.454;9.928;2024-02-21T11:20:59;7.22;;;1.30;;
80201;SDS011;69521;54.454;9.928;2024-02-21T11:23:25;10.23;;;1.03;;
80201;SDS011;69521;54.454;9.928;2024-02-21T11:25:51;11.77;;;1.52;;
80201;SDS011;69521;54.454;9.928;2024-02-21T11:28:17;7.40;;;1.73;;
80201;SDS011;69521;54.454;9.928;2024-02-21T11:30:50;6.75;;;1.50;;
80201;SDS011;69521;54.454;9.928;2024-02-21T11:33:16;14.18;;;1.70;;
80201;SDS011;69521;54.454;9.928;2024-02-21T11:35:42;17.25;;;2.20;;
80201;SDS011;69521;54.454;9.928;2024-02-21T11:38:08;7.90;;;1.30;;
80201;SDS011;69521;54.454;9.928;2024-02-21T11:40:35;7.32;;;1.40;;
80201;SDS011;69521;54.454;9.928;2024-02-21T11:43:00;7.70;;;2.55;;
80201;SDS011;69521;54.454;9.928;2024-02-21T11:45:25;5.67;;;1.10;;
80201;SDS011;69521;54.454;9.928;2024-02-21T11:47:52;11.45;;;1.75;;
80201;SDS011;69521;54.454;9.928;2024-02-21T11:50:17;8.07;;;1.45;;
80201;SDS011;69521;54.454;9.928;2024-02-21T11:52:43;5.28;;;1.27;;
80201;SDS011;69521;54.454;9.928;2024-02-21T11:55:08;6.55;;;1.73;;
80201;SDS011;69521;54.454;9.928;2024-02-21T11:57:33;12.83;;;1.70;;
80201;SDS011;69521;54.454;9.928;2024-02-21T12:00:12;8.35;;;1.80;;
80201;SDS011;69521;54.454;9.928;2024-02-21T12:02:49;6.97;;;1.60;;
80201;SDS011;69521;54.454;9.928;2024-02-21T12:05:15;7.25;;;1.90;;
80201;SDS011;69521;54.454;9.928;2024-02-21T12:07:41;10.88;;;1.77;;
80201;SDS011;69521;54.454;9.928;2024-02-21T12:10:09;6.97;;;1.88;;
80201;SDS011;69521;54.454;9.928;2024-02-21T12:12:39;9.63;;;2.47;;
80201;SDS011;69521;54.454;9.928;2024-02-21T12:15:05;7.82;;;2.50;;
80201;SDS011;69521;54.454;9.928;2024-02-21T12:17:39;9.60;;;2.88;;
80201;SDS011;69521;54.454;9.928;2024-02-21T12:20:05;11.68;;;2.47;;
80201;SDS011;69521;54.454;9.928;2024-02-21T12:22:33;9.00;;;1.92;;
80201;SDS011;69521;54.454;9.928;2024-02-21T12:25:02;9.10;;;2.08;;
80201;SDS011;69521;54.454;9.928;2024-02-21T12:27:29;10.85;;;2.45;;
80201;SDS011;69521;54.454;9.928;2024-02-21T12:29:54;8.85;;;2.38;;
80201;SDS011;69521;54.454;9.928;2024-02-21T12:32:20;5.60;;;2.42;;
80201;SDS011;69521;54.454;9.928;2024-02-21T12:34:45;10.55;;;2.33;;
80201;SDS011;69521;54.454;9.928;2024-02-21T12:37:11;16.40;;;4.00;;
80201;SDS011;69521;54.454;9.928;2024-02-21T12:39:40;13.02;;;3.60;;
80201;SDS011;69521;54.454;9.928;2024-02-21T12:42:06;7.60;;;2.90;;
80201;SDS011;69521;54.454;9.928;2024-02-21T12:44:31;13.75;;;3.42;;
80201;SDS011;69521;54.454;9.928;2024-02-21T12:46:57;9.68;;;3.58;;
80201;SDS011;69521;54.454;9.928;2024-02-21T12:49:22;11.20;;;3.45;;
80201;SDS011;69521;54.454;9.928;2024-02-21T12:51:49;7.90;;;2.85;;
80201;SDS011;69521;54.454;9.928;2024-02-21T12:54:14;7.70;;;2.78;;
80201;SDS011;69521;54.454;9.928;2024-02-21T12:56:40;12.15;;;2.90;;
80201;SDS011;69521;54.454;9.928;2024-02-21T12:59:05;7.72;;;2.80;;
80201;SDS011;69521;54.454;9.928;2024-02-21T13:01:34;14.43;;;3.97;;
80201;SDS011;69521;54.454;9.928;2024-02-21T13:04:00;11.18;;;3.15;;
80201;SDS011;69521;54.454;9.928;2024-02-21T13:06:26;5.75;;;2.45;;
80201;SDS011;69521;54.454;9.928;2024-02-21T13:08:51;8.53;;;2.87;;
80201;SDS011;69521;54.454;9.928;2024-02-21T13:11:16;9.43;;;3.07;;
80201;SDS011;69521;54.454;9.928;2024-02-21T13:13:41;17.25;;;3.22;;
80201;SDS011;69521;54.454;9.928;2024-02-21T13:16:07;10.20;;;3.17;;
80201;SDS011;69521;54.454;9.928;2024-02-21T13:18:32;9.67;;;2.87;;
80201;SDS011;69521;54.454;9.928;2024-02-21T13:20:57;8.13;;;2.75;;
80201;SDS011;69521;54.454;9.928;2024-02-21T13:23:23;9.70;;;2.80;;
80201;SDS011;69521;54.454;9.928;2024-02-21T13:25:48;8.00;;;3.17;;
80201;SDS011;69521;54.454;9.928;2024-02-21T13:28:14;8.45;;;2.47;;
80201;SDS011;69521;54.454;9.928;2024-02-21T13:30:41;3.80;;;2.30;;
80201;SDS011;69521;54.454;9.928;2024-02-21T13:33:07;6.43;;;2.35;;
80201;SDS011;69521;54.454;9.928;2024-02-21T13:35:32;5.72;;;2.42;;
80201;SDS011;69521;54.454;9.928;2024-02-21T13:37:58;5.47;;;2.60;;
80201;SDS011;69521;54.454;9.928;2024-02-21T13:40:23;4.07;;;2.35;;
80201;SDS011;69521;54.454;9.928;2024-02-21T13:42:50;5.07;;;2.50;;
80201;SDS011;69521;54.454;9.928;2024-02-21T13:45:16;5.90;;;2.70;;
80201;SDS011;69521;54.454;9.928;2024-02-21T13:47:41;7.00;;;3.00;;
80201;SDS011;69521;54.454;9.928;2024-02-21T13:50:07;13.35;;;3.03;;
80201;SDS011;69521;54.454;9.928;2024-02-21T13:52:39;10.52;;;3.58;;
80201;SDS011;69521;54.454;9.928;2024-02-21T13:55:08;6.95;;;3.20;;
80201;SDS011;69521;54.454;9.928;2024-02-21T13:57:34;6.72;;;3.58;;
80201;SDS011;69521;54.454;9.928;2024-02-21T14:00:00;6.88;;;3.60;;
80201;SDS011;69521;54.454;9.928;2024-02-21T14:02:25;7.57;;;3.88;;
80201;SDS011;69521;54.454;9.928;2024-02-21T14:04:51;8.73;;;3.50;;
80201;SDS011;69521;54.454;9.928;2024-02-21T14:07:16;10.37;;;3.87;;
80201;SDS011;69521;54.454;9.928;2024-02-21T14:09:42;11.02;;;3.92;;
80201;SDS011;69521;54.454;9.928;2024-02-21T14:12:07;10.85;;;4.55;;
80201;SDS011;69521;54.454;9.928;2024-02-21T14:14:33;8.95;;;4.25;;
80201;SDS011;69521;54.454;9.928;2024-02-21T14:17:00;12.15;;;4.53;;
80201;SDS011;69521;54.454;9.928;2024-02-21T14:19:26;7.85;;;3.70;;
80201;SDS011;69521;54.454;9.928;2024-02-21T14:21:53;10.15;;;4.53;;
80201;SDS011;69521;54.454;9.928;2024-02-21T14:24:19;10.20;;;4.22;;
80201;SDS011;69521;54.454;9.928;2024-02-21T14:26:44;13.90;;;4.73;;
80201;SDS011;69521;54.454;9.928;2024-02-21T14:29:09;8.93;;;5.00;;
80201;SDS011;69521;54.454;9.928;2024-02-21T14:31:35;10.38;;;4.97;;
80201;SDS011;69521;54.454;9.928;2024-02-21T14:34:00;11.70;;;6.03;;
80201;SDS011;69521;54.454;9.928;2024-02-21T14:36:27;13.35;;;5.45;;
80201;SDS011;69521;54.454;9.928;2024-02-21T14:38:52;11.20;;;6.17;;
80201;SDS011;69521;54.454;9.928;2024-02-21T14:41:18;12.63;;;5.57;;